createdAt,value
2024-03-02T00:00:42.261Z,980.39
2024-03-02T00:01:42.088Z,980.32
2024-03-02T00:02:42.040Z,980.28
2024-03-02T00:03:42.147Z,980.33
2024-03-02T00:04:42.039Z,980.30
2024-03-02T00:05:42.093Z,980.26
2024-03-02T00:06:42.140Z,980.37
2024-03-02T00:07:42.117Z,980.33
2024-03-02T00:08:42.129Z,980.30
2024-03-02T00:09:42.175Z,980.32
2024-03-02T00:10:42.177Z,980.31
2024-03-02T00:11:42.186Z,980.34
2024-03-02T00:12:42.242Z,980.35
2024-03-02T00:13:42.165Z,980.35
2024-03-02T00:14:42.187Z,980.34
2024-03-02T00:15:42.263Z,980.26
2024-03-02T00:16:42.226Z,980.28
2024-03-02T00:17:42.287Z,980.28
2024-03-02T00:18:42.316Z,980.27
2024-03-02T00:19:42.250Z,980.29
2024-03-02T00:20:42.267Z,980.21
2024-03-02T00:21:42.299Z,980.23
2024-03-02T00:22:42.285Z,980.24
2024-03-02T00:23:42.289Z,980.25
2024-03-02T00:24:42.361Z,980.33
2024-03-02T00:25:42.337Z,980.27
2024-03-02T00:26:42.329Z,980.32
2024-03-02T00:27:42.338Z,980.31
2024-03-02T00:28:42.337Z,980.30
2024-03-02T00:29:42.358Z,980.27
2024-03-02T00:30:42.417Z,980.30
2024-03-02T00:31:42.409Z,980.26
2024-03-02T00:32:42.436Z,980.28
2024-03-02T00:33:42.493Z,980.27
2024-03-02T00:34:42.428Z,980.31
2024-03-02T00:35:42.462Z,980.33
2024-03-02T00:36:42.508Z,980.33
2024-03-02T00:37:42.503Z,980.40
2024-03-02T00:38:42.492Z,980.35
2024-03-02T00:39:42.555Z,980.38
2024-03-02T00:40:42.502Z,980.44
2024-03-02T00:41:42.498Z,980.39
2024-03-02T00:42:42.566Z,980.40
2024-03-02T00:43:44.801Z,980.49
2024-03-02T00:44:42.541Z,980.53
2024-03-02T00:45:42.560Z,980.42
2024-03-02T00:46:42.570Z,980.50
2024-03-02T00:47:42.574Z,980.54
2024-03-02T00:48:42.570Z,980.50
2024-03-02T00:49:42.559Z,980.51
2024-03-02T00:50:42.540Z,980.45
2024-03-02T00:51:42.621Z,980.45
2024-03-02T00:52:42.544Z,980.45
2024-03-02T00:53:42.533Z,980.50
2024-03-02T00:54:42.618Z,980.43
2024-03-02T00:55:42.567Z,980.46
2024-03-02T00:56:42.559Z,980.47
2024-03-02T00:57:42.565Z,980.48
2024-03-02T00:58:42.542Z,980.48
2024-03-02T00:59:42.572Z,980.39
2024-03-02T01:00:42.662Z,980.36
2024-03-02T01:01:42.598Z,980.38
2024-03-02T01:02:42.549Z,980.36
2024-03-02T01:03:42.592Z,980.42
2024-03-02T01:04:42.564Z,980.39
2024-03-02T01:05:42.558Z,980.41
2024-03-02T01:06:42.653Z,980.36
2024-03-02T01:07:42.556Z,980.40
2024-03-02T01:08:42.554Z,980.37
2024-03-02T01:09:42.776Z,980.44
2024-03-02T01:10:42.586Z,980.43
2024-03-02T01:11:42.580Z,980.39
2024-03-02T01:12:42.626Z,980.45
2024-03-02T01:13:42.579Z,980.44
2024-03-02T01:14:42.559Z,980.41
2024-03-02T01:15:42.623Z,980.38
2024-03-02T01:16:42.583Z,980.36
2024-03-02T01:17:42.573Z,980.41
2024-03-02T01:18:42.601Z,980.36
2024-03-02T01:19:42.608Z,980.37
2024-03-02T01:20:42.578Z,980.32
2024-03-02T01:21:42.627Z,980.39
2024-03-02T01:22:42.581Z,980.30
2024-03-02T01:23:42.583Z,980.26
2024-03-02T01:24:42.680Z,980.29
2024-03-02T01:25:42.611Z,980.25
2024-03-02T01:26:42.629Z,980.18
2024-03-02T01:27:42.592Z,980.23
2024-03-02T01:28:42.594Z,980.26
2024-03-02T01:29:42.623Z,980.14
2024-03-02T01:30:42.605Z,980.25
2024-03-02T01:31:42.608Z,980.19
2024-03-02T01:32:42.653Z,980.16
2024-03-02T01:33:42.620Z,980.23
2024-03-02T01:34:42.573Z,980.12
2024-03-02T01:35:42.572Z,980.13
2024-03-02T01:36:42.626Z,980.11
2024-03-02T01:37:42.594Z,980.07
2024-03-02T01:38:42.615Z,980.13
2024-03-02T01:39:42.623Z,980.08
2024-03-02T01:40:42.597Z,980.02
2024-03-02T01:41:42.585Z,979.98
2024-03-02T01:42:42.670Z,980.03
2024-03-02T01:43:42.628Z,979.99
2024-03-02T01:44:42.620Z,979.99
2024-03-02T01:45:42.631Z,979.99
2024-03-02T01:46:42.605Z,979.99
2024-03-02T01:47:42.615Z,980.00
2024-03-02T01:48:42.637Z,979.99
2024-03-02T01:49:42.598Z,979.96
2024-03-02T01:50:42.615Z,980.01
2024-03-02T01:51:42.676Z,979.99
2024-03-02T01:52:42.632Z,979.97
2024-03-02T01:53:42.598Z,979.90
2024-03-02T01:54:42.637Z,979.96
2024-03-02T01:55:42.613Z,979.87
2024-03-02T01:56:42.653Z,979.92
2024-03-02T01:57:42.657Z,979.93
2024-03-02T01:58:42.619Z,979.85
2024-03-02T01:59:42.619Z,979.98
2024-03-02T02:00:42.754Z,979.86
2024-03-02T02:01:42.638Z,979.94
2024-03-02T02:02:42.655Z,979.95
2024-03-02T02:03:42.653Z,979.94
2024-03-02T02:04:42.666Z,979.92
2024-03-02T02:05:42.643Z,979.94
2024-03-02T02:06:42.694Z,979.89
2024-03-02T02:07:42.614Z,979.86
2024-03-02T02:08:42.624Z,979.90
2024-03-02T02:09:42.685Z,979.93
2024-03-02T02:10:42.619Z,979.90
2024-03-02T02:11:42.619Z,979.84
2024-03-02T02:12:42.658Z,979.87
2024-03-02T02:13:42.618Z,979.81
2024-03-02T02:14:42.618Z,979.82
2024-03-02T02:15:42.634Z,979.80
2024-03-02T02:16:42.626Z,979.87
2024-03-02T02:17:42.660Z,979.84
2024-03-02T02:18:42.701Z,979.84
2024-03-02T02:19:42.639Z,979.76
2024-03-02T02:20:42.616Z,979.86
2024-03-02T02:21:42.656Z,979.80
2024-03-02T02:22:42.633Z,979.79
2024-03-02T02:23:42.628Z,979.81
2024-03-02T02:24:42.663Z,979.75
2024-03-02T02:25:42.619Z,979.73
2024-03-02T02:26:42.601Z,979.77
2024-03-02T02:27:42.712Z,979.72
2024-03-02T02:28:42.633Z,979.75
2024-03-02T02:29:42.642Z,979.64
2024-03-02T02:30:42.716Z,979.68
2024-03-02T02:31:42.632Z,979.67
2024-03-02T02:32:42.696Z,979.60
2024-03-02T02:33:42.693Z,979.65
2024-03-02T02:34:42.641Z,979.57
2024-03-02T02:35:42.645Z,979.65
2024-03-02T02:36:42.657Z,979.61
2024-03-02T02:37:42.624Z,979.57
2024-03-02T02:38:42.679Z,979.66
2024-03-02T02:39:42.664Z,979.65
2024-03-02T02:40:42.639Z,979.68
2024-03-02T02:41:42.647Z,979.75
2024-03-02T02:42:42.740Z,979.66
2024-03-02T02:43:42.668Z,979.70
2024-03-02T02:44:42.657Z,979.70
2024-03-02T02:45:42.734Z,979.66
2024-03-02T02:46:42.641Z,979.73
2024-03-02T02:47:42.671Z,979.70
2024-03-02T02:48:42.690Z,979.65
2024-03-02T02:49:42.662Z,979.68
2024-03-02T02:50:42.674Z,979.60
2024-03-02T02:51:42.780Z,979.62
2024-03-02T02:52:42.713Z,979.65
2024-03-02T02:53:42.654Z,979.63
2024-03-02T02:54:42.709Z,979.62
2024-03-02T02:55:42.682Z,979.60
2024-03-02T02:56:42.657Z,979.61
2024-03-02T02:57:42.701Z,979.65
2024-03-02T02:58:42.683Z,979.63
2024-03-02T02:59:42.697Z,979.54
2024-03-02T03:00:42.892Z,979.51
2024-03-02T03:01:42.744Z,979.46
2024-03-02T03:02:42.675Z,979.56
2024-03-02T03:03:42.685Z,979.49
2024-03-02T03:04:42.702Z,979.52
2024-03-02T03:05:42.666Z,979.43
2024-03-02T03:06:42.687Z,979.42
2024-03-02T03:07:42.675Z,979.44
2024-03-02T03:08:42.664Z,979.41
2024-03-02T03:09:42.748Z,979.44
2024-03-02T03:10:42.675Z,979.43
2024-03-02T03:11:42.677Z,979.42
2024-03-02T03:12:42.719Z,979.36
2024-03-02T03:13:42.656Z,979.27
2024-03-02T03:14:42.688Z,979.36
2024-03-02T03:16:42.681Z,979.27
2024-03-02T03:17:42.791Z,979.29
2024-03-02T03:18:42.735Z,979.32
2024-03-02T03:19:42.693Z,979.36
2024-03-02T03:20:42.719Z,979.27
2024-03-02T03:21:42.703Z,979.33
2024-03-02T03:22:42.687Z,979.33
2024-03-02T03:23:42.683Z,979.39
2024-03-02T03:24:43.045Z,979.30
2024-03-02T03:25:42.681Z,979.36
2024-03-02T03:26:42.685Z,979.36
2024-03-02T03:27:42.962Z,979.43
2024-03-02T03:28:42.680Z,979.37
2024-03-02T03:29:42.681Z,979.41
2024-03-02T03:30:42.829Z,979.42
2024-03-02T03:31:42.690Z,979.37
2024-03-02T03:32:42.677Z,979.41
2024-03-02T03:33:42.771Z,979.38
2024-03-02T03:34:42.732Z,979.34
2024-03-02T03:35:42.743Z,979.30
2024-03-02T03:36:42.771Z,979.38
2024-03-02T03:37:42.693Z,979.32
2024-03-02T03:38:42.692Z,979.33
2024-03-02T03:39:42.726Z,979.34
2024-03-02T03:40:42.708Z,979.36
2024-03-02T03:41:42.725Z,979.27
2024-03-02T03:42:42.731Z,979.31
2024-03-02T03:43:42.713Z,979.31
2024-03-02T03:44:42.706Z,979.30
2024-03-02T03:45:42.731Z,979.26
2024-03-02T03:46:42.755Z,979.29
2024-03-02T03:47:42.728Z,979.34
2024-03-02T03:48:42.746Z,979.39
2024-03-02T03:49:42.699Z,979.31
2024-03-02T03:50:42.715Z,979.29
2024-03-02T03:51:42.781Z,979.29
2024-03-02T03:52:42.709Z,979.30
2024-03-02T03:53:42.702Z,979.26
2024-03-02T03:54:42.783Z,979.26
2024-03-02T03:55:42.729Z,979.34
2024-03-02T03:56:42.740Z,979.33
2024-03-02T03:57:42.744Z,979.31
2024-03-02T03:58:42.705Z,979.29
2024-03-02T03:59:42.711Z,979.27
2024-03-02T04:00:42.815Z,979.24
2024-03-02T04:01:42.773Z,979.28
2024-03-02T04:02:42.718Z,979.30
2024-03-02T04:03:42.760Z,979.26
2024-03-02T04:04:42.740Z,979.28
2024-03-02T04:05:42.726Z,979.26
2024-03-02T04:06:42.760Z,979.25
2024-03-02T04:07:42.749Z,979.26
2024-03-02T04:08:42.735Z,979.29
2024-03-02T04:09:42.756Z,979.30
2024-03-02T04:10:42.768Z,979.27
2024-03-02T04:11:42.707Z,979.31
2024-03-02T04:12:42.756Z,979.26
2024-03-02T04:13:42.727Z,979.26
2024-03-02T04:14:42.722Z,979.32
2024-03-02T04:15:42.748Z,979.30
2024-03-02T04:16:42.725Z,979.27
2024-03-02T04:17:42.767Z,979.31
2024-03-02T04:18:42.853Z,979.31
2024-03-02T04:19:42.709Z,979.25
2024-03-02T04:20:43.019Z,979.27
2024-03-02T04:21:42.760Z,979.33
2024-03-02T04:22:42.758Z,979.43
2024-03-02T04:23:42.739Z,979.39
2024-03-02T04:24:42.781Z,979.36
2024-03-02T04:25:42.750Z,979.40
2024-03-02T04:26:42.747Z,979.42
2024-03-02T04:27:42.802Z,979.43
2024-03-02T04:28:42.782Z,979.42
2024-03-02T04:29:42.763Z,979.39
2024-03-02T04:30:42.772Z,979.40
2024-03-02T04:31:42.781Z,979.36
2024-03-02T04:32:42.764Z,979.37
2024-03-02T04:33:42.782Z,979.43
2024-03-02T04:34:42.767Z,979.53
2024-03-02T04:35:42.746Z,979.47
2024-03-02T04:36:42.756Z,979.45
2024-03-02T04:37:42.753Z,979.41
2024-03-02T04:38:42.894Z,979.52
2024-03-02T04:39:42.764Z,979.44
2024-03-02T04:40:42.765Z,979.46
2024-03-02T04:41:42.759Z,979.47
2024-03-02T04:42:42.759Z,979.50
2024-03-02T04:43:42.747Z,979.52
2024-03-02T04:44:42.754Z,979.49
2024-03-02T04:45:42.800Z,979.50
2024-03-02T04:46:42.764Z,979.47
2024-03-02T04:47:42.770Z,979.49
2024-03-02T04:48:42.905Z,979.54
2024-03-02T04:49:42.894Z,979.53
2024-03-02T04:50:42.799Z,979.55
2024-03-02T04:51:42.801Z,979.49
2024-03-02T04:52:42.756Z,979.53
2024-03-02T04:53:42.799Z,979.52
2024-03-02T04:54:42.795Z,979.60
2024-03-02T04:55:42.775Z,979.58
2024-03-02T04:56:42.775Z,979.58
2024-03-02T04:57:42.783Z,979.56
2024-03-02T04:58:42.795Z,979.57
2024-03-02T04:59:42.787Z,979.66
2024-03-02T05:00:42.832Z,979.64
2024-03-02T05:01:42.818Z,979.66
2024-03-02T05:02:42.776Z,979.72
2024-03-02T05:03:42.831Z,979.69
2024-03-02T05:04:42.765Z,979.65
2024-03-02T05:05:42.804Z,979.74
2024-03-02T05:06:42.845Z,979.72
2024-03-02T05:07:42.765Z,979.69
2024-03-02T05:08:42.802Z,979.73
2024-03-02T05:09:42.823Z,979.73
2024-03-02T05:10:42.874Z,979.69
2024-03-02T05:11:42.802Z,979.69
2024-03-02T05:12:42.869Z,979.72
2024-03-02T05:13:42.776Z,979.65
2024-03-02T05:14:42.772Z,979.73
2024-03-02T05:15:42.804Z,979.83
2024-03-02T05:16:42.813Z,979.79
2024-03-02T05:17:42.868Z,979.84
2024-03-02T05:18:42.831Z,979.80
2024-03-02T05:19:42.792Z,979.84
2024-03-02T05:20:42.786Z,979.90
2024-03-02T05:21:42.831Z,979.86
2024-03-02T05:22:42.819Z,979.82
2024-03-02T05:23:42.765Z,979.82
2024-03-02T05:24:42.834Z,979.83
2024-03-02T05:25:42.801Z,979.85
2024-03-02T05:26:42.812Z,979.79
2024-03-02T05:27:42.845Z,979.85
2024-03-02T05:28:42.825Z,979.81
2024-03-02T05:29:42.792Z,979.90
2024-03-02T05:30:42.808Z,979.77
2024-03-02T05:31:42.808Z,979.84
2024-03-02T05:32:42.810Z,979.87
2024-03-02T05:33:42.931Z,979.93
2024-03-02T05:34:42.852Z,980.00
2024-03-02T05:35:42.809Z,979.92
2024-03-02T05:36:42.848Z,979.93
2024-03-02T05:37:42.801Z,979.95
2024-03-02T05:38:42.801Z,979.99
2024-03-02T05:39:42.894Z,979.98
2024-03-02T05:40:42.835Z,979.94
2024-03-02T05:41:42.818Z,979.91
2024-03-02T05:42:42.904Z,979.86
2024-03-02T05:43:42.818Z,979.83
2024-03-02T05:44:42.826Z,979.84
2024-03-02T05:45:42.867Z,979.88
2024-03-02T05:46:42.822Z,979.84
2024-03-02T05:47:42.833Z,979.85
2024-03-02T05:48:42.896Z,979.97
2024-03-02T05:49:42.838Z,979.93
2024-03-02T05:50:42.829Z,979.89
2024-03-02T05:51:42.872Z,979.94
2024-03-02T05:52:42.870Z,980.00
2024-03-02T05:53:42.852Z,980.06
2024-03-02T05:54:42.949Z,979.99
2024-03-02T05:55:42.870Z,979.99
2024-03-02T05:56:42.873Z,979.94
2024-03-02T05:57:42.927Z,980.01
2024-03-02T05:58:42.884Z,980.01
2024-03-02T05:59:42.909Z,979.92
2024-03-02T06:00:43.006Z,979.99
2024-03-02T06:01:42.996Z,980.04
2024-03-02T06:02:42.929Z,979.97
2024-03-02T06:03:43.019Z,979.91
2024-03-02T06:04:42.960Z,979.95
2024-03-02T06:05:42.978Z,979.99
2024-03-02T06:06:43.052Z,979.98
2024-03-02T06:07:43.010Z,979.97
2024-03-02T06:08:43.026Z,979.93
2024-03-02T06:09:43.061Z,980.00
2024-03-02T06:10:43.110Z,980.01
2024-03-02T06:11:43.062Z,979.93
2024-03-02T06:12:43.190Z,979.99
2024-03-02T06:13:43.092Z,980.03
2024-03-02T06:14:43.087Z,979.99
2024-03-02T06:15:43.149Z,979.96
2024-03-02T06:16:43.142Z,980.06
2024-03-02T06:17:43.175Z,980.06
2024-03-02T06:18:43.169Z,980.07
2024-03-02T06:19:43.157Z,980.05
2024-03-02T06:20:43.163Z,980.11
2024-03-02T06:21:43.198Z,980.14
2024-03-02T06:22:43.207Z,980.11
2024-03-02T06:23:43.193Z,980.10
2024-03-02T06:24:43.217Z,980.08
2024-03-02T06:25:43.236Z,980.10
2024-03-02T06:26:43.233Z,980.00
2024-03-02T06:27:43.277Z,980.02
2024-03-02T06:28:43.257Z,980.15
2024-03-02T06:29:43.268Z,980.09
2024-03-02T06:30:43.308Z,980.10
2024-03-02T06:31:43.305Z,980.04
2024-03-02T06:32:43.354Z,980.03
2024-03-02T06:33:43.345Z,980.02
2024-03-02T06:34:43.333Z,980.08
2024-03-02T06:35:43.317Z,980.13
2024-03-02T06:36:43.394Z,980.15
2024-03-02T06:37:43.384Z,980.17
2024-03-02T06:38:43.867Z,980.20
2024-03-02T06:39:43.408Z,980.17
2024-03-02T06:40:43.399Z,980.24
2024-03-02T06:41:43.401Z,980.19
2024-03-02T06:42:43.467Z,980.17
2024-03-02T06:43:43.452Z,980.17
2024-03-02T06:44:43.438Z,980.11
2024-03-02T06:45:43.465Z,980.21
2024-03-02T06:46:43.461Z,980.19
2024-03-02T06:47:43.517Z,980.16
2024-03-02T06:48:43.559Z,980.14
2024-03-02T06:49:43.500Z,980.24
2024-03-02T06:50:43.512Z,980.18
2024-03-02T06:51:43.567Z,980.21
2024-03-02T06:52:43.556Z,980.16
2024-03-02T06:53:43.560Z,980.26
2024-03-02T06:54:43.602Z,980.20
2024-03-02T06:55:43.590Z,980.26
2024-03-02T06:56:43.586Z,980.19
2024-03-02T06:57:43.694Z,980.23
2024-03-02T06:58:43.626Z,980.31
2024-03-02T06:59:43.656Z,980.24
2024-03-02T07:00:43.657Z,980.28
2024-03-02T07:01:43.694Z,980.28
2024-03-02T07:02:43.678Z,980.36
2024-03-02T07:03:43.690Z,980.35
2024-03-02T07:04:43.680Z,980.45
2024-03-02T07:05:43.697Z,980.35
2024-03-02T07:06:43.777Z,980.45
2024-03-02T07:07:43.719Z,980.41
2024-03-02T07:08:43.725Z,980.39
2024-03-02T07:09:43.763Z,980.41
2024-03-02T07:10:43.773Z,980.41
2024-03-02T07:11:43.799Z,980.38
2024-03-02T07:12:43.824Z,980.42
2024-03-02T07:13:43.815Z,980.48
2024-03-02T07:14:43.789Z,980.48
2024-03-02T07:15:43.884Z,980.54
2024-03-02T07:16:43.818Z,980.50
2024-03-02T07:17:43.862Z,980.43
2024-03-02T07:18:43.916Z,980.51
2024-03-02T07:19:43.877Z,980.47
2024-03-02T07:20:43.884Z,980.52
2024-03-02T07:21:43.914Z,980.56
2024-03-02T07:22:45.132Z,980.51
2024-03-02T07:23:43.951Z,980.59
2024-03-02T07:24:43.955Z,980.72
2024-03-02T07:27:43.979Z,980.64
2024-03-02T07:28:43.942Z,980.61
2024-03-02T07:29:43.972Z,980.46
2024-03-02T07:30:43.959Z,980.57
2024-03-02T07:31:43.933Z,980.54
2024-03-02T07:32:44.004Z,980.59
2024-03-02T07:33:44.024Z,980.56
2024-03-02T07:34:43.942Z,980.47
2024-03-02T07:35:43.948Z,980.49
2024-03-02T07:36:43.958Z,980.41
2024-03-02T07:37:43.938Z,980.55
2024-03-02T07:38:43.986Z,980.53
2024-03-02T07:39:43.960Z,980.61
2024-03-02T07:40:43.955Z,980.56
2024-03-02T07:41:43.949Z,980.60
2024-03-02T07:42:44.024Z,980.52
2024-03-02T07:43:43.975Z,980.57
2024-03-02T07:44:43.984Z,980.57
2024-03-02T07:45:43.957Z,980.57
2024-03-02T07:46:43.980Z,980.62
2024-03-02T07:47:43.964Z,980.56
2024-03-02T07:48:43.984Z,980.55
2024-03-02T07:49:43.981Z,980.52
2024-03-02T07:50:43.971Z,980.60
2024-03-02T07:51:43.994Z,980.56
2024-03-02T07:52:43.964Z,980.57
2024-03-02T07:53:45.257Z,980.57
2024-03-02T07:54:44.056Z,980.60
2024-03-02T07:55:44.002Z,980.60
2024-03-02T07:56:43.977Z,980.56
2024-03-02T07:57:44.019Z,980.56
2024-03-02T07:58:43.987Z,980.69
2024-03-02T07:59:43.970Z,980.70
2024-03-02T08:00:44.024Z,980.60
2024-03-02T08:01:43.995Z,980.67
2024-03-02T08:02:43.981Z,980.70
2024-03-02T08:03:44.040Z,980.83
2024-03-02T08:04:43.991Z,980.78
2024-03-02T08:05:43.971Z,980.79
2024-03-02T08:06:44.005Z,980.80
2024-03-02T08:07:43.972Z,980.82
2024-03-02T08:08:43.986Z,980.90
2024-03-02T08:09:44.022Z,980.93
2024-03-02T08:10:44.010Z,980.83
2024-03-02T08:11:44.036Z,980.77
2024-03-02T08:12:43.994Z,980.84
2024-03-02T08:13:44.007Z,980.92
2024-03-02T08:14:43.987Z,980.89
2024-03-02T08:15:44.025Z,980.92
2024-03-02T08:16:43.976Z,980.93
2024-03-02T08:17:44.053Z,980.90
2024-03-02T08:18:44.080Z,980.97
2024-03-02T08:19:43.983Z,980.83
2024-03-02T08:20:43.988Z,980.93
2024-03-02T08:21:44.034Z,980.97
2024-03-02T08:22:43.983Z,980.95
2024-03-02T08:23:44.938Z,981.01
2024-03-02T08:24:44.000Z,980.91
2024-03-02T08:25:44.009Z,980.94
2024-03-02T08:26:43.988Z,980.97
2024-03-02T08:27:44.107Z,980.93
2024-03-02T08:28:44.010Z,980.90
2024-03-02T08:29:44.035Z,980.96
2024-03-02T08:30:44.062Z,980.89
2024-03-02T08:31:43.976Z,980.88
2024-03-02T08:32:44.017Z,980.87
2024-03-02T08:33:44.082Z,980.91
2024-03-02T08:34:43.997Z,980.89
2024-03-02T08:35:44.038Z,980.82
2024-03-02T08:36:44.036Z,980.84
2024-03-02T08:37:44.022Z,980.84
2024-03-02T08:38:44.042Z,980.86
2024-03-02T08:39:44.046Z,980.83
2024-03-02T08:40:44.051Z,980.87
2024-03-02T08:41:44.058Z,980.91
2024-03-02T08:42:44.094Z,980.94
2024-03-02T08:43:44.094Z,980.84
2024-03-02T08:44:44.096Z,980.80
2024-03-02T08:45:44.167Z,980.79
2024-03-02T08:46:44.126Z,980.77
2024-03-02T08:47:44.179Z,980.78
2024-03-02T08:48:44.209Z,980.74
2024-03-02T08:49:44.156Z,980.81
2024-03-02T08:50:44.177Z,980.89
2024-03-02T08:51:44.189Z,980.83
2024-03-02T08:52:44.211Z,980.88
2024-03-02T08:53:44.237Z,980.88
2024-03-02T08:54:44.248Z,980.85
2024-03-02T08:55:44.224Z,980.83
2024-03-02T08:56:44.242Z,980.87
2024-03-02T08:57:44.301Z,980.90
2024-03-02T08:58:44.273Z,980.82
2024-03-02T08:59:44.273Z,980.87
2024-03-02T09:00:44.431Z,980.91
2024-03-02T09:01:44.439Z,980.93
2024-03-02T09:02:44.285Z,980.94
2024-03-02T09:03:44.337Z,980.96
2024-03-02T09:04:44.349Z,980.95
2024-03-02T09:05:44.360Z,980.99
2024-03-02T09:06:44.372Z,980.90
2024-03-02T09:07:44.382Z,980.92
2024-03-02T09:08:44.399Z,980.97
2024-03-02T09:09:44.434Z,980.99
2024-03-02T09:10:44.588Z,980.93
2024-03-02T09:11:44.452Z,980.97
2024-03-02T09:12:44.515Z,980.93
2024-03-02T09:13:44.448Z,980.97
2024-03-02T09:14:44.485Z,981.01
2024-03-02T09:15:44.504Z,980.99
2024-03-02T09:16:44.498Z,981.00
2024-03-02T09:17:44.526Z,981.03
2024-03-02T09:18:44.583Z,981.06
2024-03-02T09:19:44.536Z,980.91
2024-03-02T09:20:44.549Z,980.92
2024-03-02T09:21:44.584Z,980.99
2024-03-02T09:22:44.551Z,981.08
2024-03-02T09:23:44.538Z,980.96
2024-03-02T09:24:44.613Z,980.95
2024-03-02T09:25:44.600Z,980.90
2024-03-02T09:26:44.601Z,980.99
2024-03-02T09:27:44.679Z,980.92
2024-03-02T09:28:44.625Z,980.92
2024-03-02T09:29:44.666Z,980.90
2024-03-02T09:30:44.706Z,980.88
2024-03-02T09:31:45.068Z,980.92
2024-03-02T09:32:45.921Z,980.89
2024-03-02T09:33:44.766Z,980.89
2024-03-02T09:34:44.700Z,980.85
2024-03-02T09:35:44.695Z,980.88
2024-03-02T09:36:44.752Z,980.82
2024-03-02T09:37:44.735Z,980.86
2024-03-02T09:38:44.732Z,980.91
2024-03-02T09:39:44.793Z,980.79
2024-03-02T09:40:44.764Z,980.86
2024-03-02T09:41:44.771Z,980.88
2024-03-02T09:42:44.825Z,980.88
2024-03-02T09:43:44.817Z,980.81
2024-03-02T09:44:44.813Z,980.86
2024-03-02T09:45:44.900Z,980.85
2024-03-02T09:46:44.869Z,980.84
2024-03-02T09:47:44.873Z,980.84
2024-03-02T09:48:44.880Z,980.83
2024-03-02T09:49:44.870Z,980.89
2024-03-02T09:50:44.892Z,980.81
2024-03-02T09:51:44.904Z,980.87
2024-03-02T09:52:44.919Z,980.81
2024-03-02T09:53:44.924Z,980.77
2024-03-02T09:54:44.973Z,980.85
2024-03-02T09:55:44.972Z,980.77
2024-03-02T09:56:44.951Z,980.79
2024-03-02T09:57:45.020Z,980.74
2024-03-02T09:58:45.113Z,980.77
2024-03-02T09:59:44.979Z,980.75
2024-03-02T10:00:45.094Z,980.72
2024-03-02T10:01:45.100Z,980.71
2024-03-02T10:02:45.040Z,980.73
2024-03-02T10:03:45.053Z,980.71
2024-03-02T10:04:45.160Z,980.73
2024-03-02T10:05:45.066Z,980.72
2024-03-02T10:06:45.088Z,980.73
2024-03-02T10:07:45.093Z,980.72
2024-03-02T10:08:45.184Z,980.77
2024-03-02T10:09:45.165Z,980.79
2024-03-02T10:10:45.176Z,980.80
2024-03-02T10:11:45.153Z,980.74
2024-03-02T10:12:45.172Z,980.77
2024-03-02T10:13:45.157Z,980.82
2024-03-02T10:14:45.181Z,980.82
2024-03-02T10:15:45.230Z,980.77
2024-03-02T10:16:45.251Z,980.79
2024-03-02T10:17:45.224Z,980.78
2024-03-02T10:18:45.244Z,980.85
2024-03-02T10:19:45.217Z,980.86
2024-03-02T10:20:45.240Z,980.75
2024-03-02T10:21:45.336Z,980.77
2024-03-02T10:22:45.301Z,980.76
2024-03-02T10:23:45.293Z,980.73
2024-03-02T10:24:45.416Z,980.75
2024-03-02T10:25:51.986Z,980.78
2024-03-02T10:26:45.333Z,980.75
2024-03-02T10:27:45.310Z,980.76
2024-03-02T10:28:45.316Z,980.66
2024-03-02T10:29:45.307Z,980.66
2024-03-02T10:30:45.371Z,980.66
2024-03-02T10:31:45.340Z,980.61
2024-03-02T10:32:45.330Z,980.70
2024-03-02T10:33:45.358Z,980.56
2024-03-02T10:34:45.346Z,980.60
2024-03-02T10:35:45.313Z,980.62
2024-03-02T10:36:45.363Z,980.60
2024-03-02T10:37:45.320Z,980.64
2024-03-02T10:38:45.312Z,980.59
2024-03-02T10:39:45.358Z,980.62
2024-03-02T10:40:45.327Z,980.60
2024-03-02T10:41:45.400Z,980.55
2024-03-02T10:42:45.350Z,980.63
2024-03-02T10:43:45.304Z,980.56
2024-03-02T10:44:45.329Z,980.54
2024-03-02T10:45:45.346Z,980.49
2024-03-02T10:46:45.332Z,980.56
2024-03-02T10:47:45.443Z,980.47
2024-03-02T10:48:45.371Z,980.50
2024-03-02T10:49:45.325Z,980.59
2024-03-02T10:50:45.341Z,980.55
2024-03-02T10:51:45.353Z,980.60
2024-03-02T10:52:45.328Z,980.63
2024-03-02T10:53:45.347Z,980.51
2024-03-02T10:54:45.392Z,980.53
2024-03-02T10:55:45.390Z,980.49
2024-03-02T10:56:45.329Z,980.46
2024-03-02T10:57:45.438Z,980.50
2024-03-02T10:58:45.490Z,980.47
2024-03-02T10:59:45.359Z,980.47
2024-03-02T11:00:45.398Z,980.47
2024-03-02T11:01:45.389Z,980.46
2024-03-02T11:02:45.356Z,980.50
2024-03-02T11:03:45.415Z,980.45
2024-03-02T11:04:45.361Z,980.44
2024-03-02T11:05:45.348Z,980.50
2024-03-02T11:06:45.383Z,980.55
2024-03-02T11:07:45.361Z,980.49
2024-03-02T11:08:45.345Z,980.44
2024-03-02T11:09:45.390Z,980.45
2024-03-02T11:10:45.384Z,980.43
2024-03-02T11:11:45.343Z,980.46
2024-03-02T11:12:45.404Z,980.35
2024-03-02T11:13:45.370Z,980.38
2024-03-02T11:14:45.403Z,980.35
2024-03-02T11:15:45.432Z,980.39
2024-03-02T11:16:45.387Z,980.37
2024-03-02T11:17:45.415Z,980.37
2024-03-02T11:18:45.443Z,980.33
2024-03-02T11:19:45.460Z,980.36
2024-03-02T11:20:45.449Z,980.32
2024-03-02T11:21:45.388Z,980.34
2024-03-02T11:22:45.393Z,980.36
2024-03-02T11:23:45.422Z,980.35
2024-03-02T11:24:45.383Z,980.36
2024-03-02T11:25:45.369Z,980.32
2024-03-02T11:26:45.385Z,980.34
2024-03-02T11:27:45.436Z,980.35
2024-03-02T11:28:45.392Z,980.34
2024-03-02T11:29:45.376Z,980.39
2024-03-02T11:30:45.372Z,980.43
2024-03-02T11:31:45.381Z,980.32
2024-03-02T11:32:45.426Z,980.39
2024-03-02T11:33:45.452Z,980.33
2024-03-02T11:34:45.406Z,980.32
2024-03-02T11:35:45.410Z,980.37
2024-03-02T11:36:45.461Z,980.26
2024-03-02T11:37:45.390Z,980.24
2024-03-02T11:38:45.400Z,980.23
2024-03-02T11:39:45.429Z,980.17
2024-03-02T11:40:45.402Z,980.14
2024-03-02T11:42:22.787Z,980.24
2024-03-02T11:43:22.713Z,980.16
2024-03-02T11:44:22.715Z,980.13
2024-03-02T11:45:22.843Z,980.17
2024-03-02T11:46:22.719Z,980.10
2024-03-02T11:47:22.789Z,980.15
2024-03-02T11:48:22.772Z,980.09
2024-03-02T11:49:22.730Z,980.14
2024-03-02T11:50:22.762Z,980.18
2024-03-02T11:51:22.777Z,980.11
2024-03-02T11:52:22.762Z,980.14
2024-03-02T11:53:22.739Z,980.12
2024-03-02T11:54:22.765Z,980.07
2024-03-02T11:55:22.791Z,980.05
2024-03-02T11:56:22.778Z,980.05
2024-03-02T11:57:22.794Z,980.01
2024-03-02T11:58:22.754Z,980.10
2024-03-02T11:59:22.756Z,979.99
2024-03-02T12:00:22.822Z,980.00
2024-03-02T12:01:22.838Z,980.05
2024-03-02T12:02:22.764Z,980.03
2024-03-02T12:03:22.776Z,979.94
2024-03-02T12:04:22.760Z,979.93
2024-03-02T12:05:22.767Z,979.96
2024-03-02T12:06:22.788Z,979.82
2024-03-02T12:07:22.764Z,979.86
2024-03-02T12:08:22.954Z,979.85
2024-03-02T12:09:22.794Z,979.78
2024-03-02T12:10:22.793Z,979.80
2024-03-02T12:11:22.796Z,979.80
2024-03-02T12:12:22.814Z,979.79
2024-03-02T12:13:22.782Z,979.80
2024-03-02T12:14:22.792Z,979.76
2024-03-02T12:15:22.854Z,979.76
2024-03-02T12:16:22.803Z,979.77
2024-03-02T12:17:22.804Z,979.78
2024-03-02T12:18:22.967Z,979.71
2024-03-02T12:19:22.942Z,979.78
2024-03-02T12:20:22.961Z,979.79
2024-03-02T12:21:23.024Z,979.73
2024-03-02T12:22:22.950Z,979.69
2024-03-02T12:23:22.987Z,979.81
2024-03-02T12:24:22.989Z,979.76
2024-03-02T12:25:22.996Z,979.76
2024-03-02T12:26:23.003Z,979.69
2024-03-02T12:27:23.204Z,979.70
2024-03-02T12:28:23.051Z,979.73
2024-03-02T12:29:23.041Z,979.67
2024-03-02T12:30:23.098Z,979.72
2024-03-02T12:31:23.104Z,979.77
2024-03-02T12:32:23.098Z,979.74